Hagali, Minnesota
Current Conditions -  °F | °C
As of 7:54 PM on Sunday 21 Dec 2014 (Local Time) from KBJI Reporting Station
Overcast Overcast  
Wind Chill: 25°   Ceiling: 600
Heat Index: 32°   Visibility: 7mi
Dew Point: 31°   Wind: 8mph
Humidity: 96%   Direction: 140°SE
Pressure: 29.62"   Gusts: NA
Location:  47.7615°N, 94.6741°W
Report Text: KBJI 220154Z AUTO 14007KT 7SM OVC006 00/00 A2962 RMK AO2 T00001005
Loading
Personal Weather Stations






























Interactive Weather Map New forecast layout! Learn more

10-Day Weather Forecast

Advertisements
Track Severe Weather on mobile